sensor_id;sensor_type;location;lat;lon;timestamp;pressure;altitude;pressure_sealevel;temperature;humidity
12913;BME280;6524;51.368;11.984;2023-04-28T04:01:39;100294.88;;;4.01;52.37
12913;BME280;6524;51.368;11.984;2023-04-28T04:06:41;100289.09;;;3.93;53.19
12913;BME280;6524;51.368;11.984;2023-04-28T04:11:41;100283.75;;;3.96;52.75
12913;BME280;6524;51.368;11.984;2023-04-28T04:16:42;100283.94;;;4.13;52.36
12913;BME280;6524;51.368;11.984;2023-04-28T04:21:42;100281.25;;;3.93;52.91
12913;BME280;6524;51.368;11.984;2023-04-28T04:26:42;100272.72;;;4.32;51.62
12913;BME280;6524;51.368;11.984;2023-04-28T04:31:43;100265.78;;;4.31;51.65
12913;BME280;6524;51.368;11.984;2023-04-28T04:36:44;100257.25;;;4.47;51.51
12913;BME280;6524;51.368;11.984;2023-04-28T04:41:44;100255.00;;;4.59;51.28
12913;BME280;6524;51.368;11.984;2023-04-28T04:46:45;100250.75;;;4.56;51.31
12913;BME280;6524;51.368;11.984;2023-04-28T04:51:46;100246.84;;;4.66;51.41
12913;BME280;6524;51.368;11.984;2023-04-28T04:56:46;100248.22;;;4.94;50.39
12913;BME280;6524;51.368;11.984;2023-04-28T05:01:46;100246.44;;;4.76;50.33
12913;BME280;6524;51.368;11.984;2023-04-28T05:06:47;100248.50;;;4.47;51.19
12913;BME280;6524;51.368;11.984;2023-04-28T05:11:47;100240.63;;;4.88;50.61
12913;BME280;6524;51.368;11.984;2023-04-28T05:16:48;100244.63;;;5.15;50.22
12913;BME280;6524;51.368;11.984;2023-04-28T05:21:48;100252.56;;;4.95;51.50
12913;BME280;6524;51.368;11.984;2023-04-28T05:26:51;100234.91;;;5.38;50.52
12913;BME280;6524;51.368;11.984;2023-04-28T05:31:53;100228.66;;;5.59;50.13
12913;BME280;6524;51.368;11.984;2023-04-28T05:36:53;100225.66;;;5.86;49.66
12913;BME280;6524;51.368;11.984;2023-04-28T05:41:53;100223.94;;;5.85;49.66
12913;BME280;6524;51.368;11.984;2023-04-28T05:46:54;100218.66;;;6.04;49.39
12913;BME280;6524;51.368;11.984;2023-04-28T05:51:54;100225.81;;;5.83;49.97
12913;BME280;6524;51.368;11.984;2023-04-28T05:56:55;100221.06;;;6.08;49.40
12913;BME280;6524;51.368;11.984;2023-04-28T06:01:55;100219.03;;;6.83;48.17
12913;BME280;6524;51.368;11.984;2023-04-28T06:06:55;100213.50;;;6.88;47.84
12913;BME280;6524;51.368;11.984;2023-04-28T06:11:56;100208.41;;;7.18;47.49
12913;BME280;6524;51.368;11.984;2023-04-28T06:16:56;100210.09;;;7.19;47.35
12913;BME280;6524;51.368;11.984;2023-04-28T06:21:56;100199.50;;;7.20;47.31
12913;BME280;6524;51.368;11.984;2023-04-28T06:26:57;100197.06;;;7.33;46.92
12913;BME280;6524;51.368;11.984;2023-04-28T06:31:57;100189.59;;;7.25;47.53
12913;BME280;6524;51.368;11.984;2023-04-28T06:36:58;100212.13;;;7.61;46.48
12913;BME280;6524;51.368;11.984;2023-04-28T06:41:58;100201.22;;;7.37;46.56
12913;BME280;6524;51.368;11.984;2023-04-28T06:46:59;100187.03;;;7.56;47.13
12913;BME280;6524;51.368;11.984;2023-04-28T06:51:59;100179.75;;;7.77;46.68
12913;BME280;6524;51.368;11.984;2023-04-28T06:57:00;100177.00;;;8.38;45.84
12913;BME280;6524;51.368;11.984;2023-04-28T07:02:01;100186.41;;;8.57;45.18
12913;BME280;6524;51.368;11.984;2023-04-28T07:07:01;100191.44;;;8.90;44.24
12913;BME280;6524;51.368;11.984;2023-04-28T07:12:02;100174.47;;;8.37;45.45
12913;BME280;6524;51.368;11.984;2023-04-28T07:17:03;100164.00;;;8.21;45.87
12913;BME280;6524;51.368;11.984;2023-04-28T07:22:03;100168.22;;;8.09;46.04
12913;BME280;6524;51.368;11.984;2023-04-28T07:27:04;100166.28;;;8.41;45.20
12913;BME280;6524;51.368;11.984;2023-04-28T07:32:04;100168.53;;;8.48;45.00
12913;BME280;6524;51.368;11.984;2023-04-28T07:37:07;100163.31;;;8.91;44.90
12913;BME280;6524;51.368;11.984;2023-04-28T07:42:09;100163.84;;;9.10;43.56
12913;BME280;6524;51.368;11.984;2023-04-28T07:47:09;100158.63;;;8.81;44.61
12913;BME280;6524;51.368;11.984;2023-04-28T07:52:10;100152.59;;;8.94;44.80
12913;BME280;6524;51.368;11.984;2023-04-28T07:57:11;100154.97;;;9.25;44.37
12913;BME280;6524;51.368;11.984;2023-04-28T08:02:11;100158.56;;;9.51;43.97
12913;BME280;6524;51.368;11.984;2023-04-28T08:07:13;100152.81;;;9.59;44.26
12913;BME280;6524;51.368;11.984;2023-04-28T08:12:14;100156.44;;;9.71;44.00
12913;BME280;6524;51.368;11.984;2023-04-28T08:17:14;100146.09;;;9.68;44.42
12913;BME280;6524;51.368;11.984;2023-04-28T08:22:16;100147.16;;;9.51;44.47
12913;BME280;6524;51.368;11.984;2023-04-28T08:27:17;100148.44;;;9.04;45.81
12913;BME280;6524;51.368;11.984;2023-04-28T08:32:17;100150.72;;;9.37;45.80
12913;BME280;6524;51.368;11.984;2023-04-28T08:37:18;100145.22;;;9.67;46.23
12913;BME280;6524;51.368;11.984;2023-04-28T08:42:18;100153.66;;;9.87;46.65
12913;BME280;6524;51.368;11.984;2023-04-28T08:47:20;100157.22;;;9.31;48.85
12913;BME280;6524;51.368;11.984;2023-04-28T08:52:23;100165.69;;;9.37;49.39
12913;BME280;6524;51.368;11.984;2023-04-28T08:57:36;100149.75;;;9.65;48.53
12913;BME280;6524;51.368;11.984;2023-04-28T09:02:37;100145.22;;;9.67;49.92
12913;BME280;6524;51.368;11.984;2023-04-28T09:07:44;100153.69;;;9.99;49.61
12913;BME280;6524;51.368;11.984;2023-04-28T09:12:45;100143.75;;;10.03;49.58
12913;BME280;6524;51.368;11.984;2023-04-28T09:17:50;100151.81;;;10.40;49.46
12913;BME280;6524;51.368;11.984;2023-04-28T09:22:52;100143.91;;;10.53;50.21
12913;BME280;6524;51.368;11.984;2023-04-28T09:27:53;100157.03;;;9.89;51.12
12913;BME280;6524;51.368;11.984;2023-04-28T09:33:05;100147.00;;;9.81;51.23
12913;BME280;6524;51.368;11.984;2023-04-28T09:38:07;100152.25;;;9.54;52.93
12913;BME280;6524;51.368;11.984;2023-04-28T09:43:25;100147.53;;;9.59;53.78
12913;BME280;6524;51.368;11.984;2023-04-28T09:48:30;100141.91;;;9.51;54.84
12913;BME280;6524;51.368;11.984;2023-04-28T09:53:33;100145.22;;;10.07;54.46
12913;BME280;6524;51.368;11.984;2023-04-28T09:58:37;100139.44;;;10.02;53.93
12913;BME280;6524;51.368;11.984;2023-04-28T10:03:40;100137.41;;;9.93;55.80
12913;BME280;6524;51.368;11.984;2023-04-28T10:08:40;100125.84;;;10.21;55.96
12913;BME280;6524;51.368;11.984;2023-04-28T10:13:42;100121.41;;;10.21;55.27
12913;BME280;6524;51.368;11.984;2023-04-28T10:18:44;100110.16;;;9.92;56.33
12913;BME280;6524;51.368;11.984;2023-04-28T10:24:10;100101.28;;;9.41;57.84
12913;BME280;6524;51.368;11.984;2023-04-28T10:29:14;100107.78;;;10.15;56.40
12913;BME280;6524;51.368;11.984;2023-04-28T10:34:21;100111.88;;;9.93;56.28
12913;BME280;6524;51.368;11.984;2023-04-28T10:39:22;100096.06;;;10.06;57.19
12913;BME280;6524;51.368;11.984;2023-04-28T10:55:33;100072.41;;;9.92;58.24
12913;BME280;6524;51.368;11.984;2023-04-28T11:00:39;100067.66;;;10.22;58.49
12913;BME280;6524;51.368;11.984;2023-04-28T11:11:29;100060.94;;;10.81;56.81
12913;BME280;6524;51.368;11.984;2023-04-28T11:16:32;100056.56;;;11.16;56.73
12913;BME280;6524;51.368;11.984;2023-04-28T11:21:33;100062.19;;;11.36;57.32
12913;BME280;6524;51.368;11.984;2023-04-28T11:26:36;100056.72;;;10.65;57.84
12913;BME280;6524;51.368;11.984;2023-04-28T11:31:37;100038.59;;;10.98;57.64
12913;BME280;6524;51.368;11.984;2023-04-28T11:36:38;100030.09;;;11.64;55.88
12913;BME280;6524;51.368;11.984;2023-04-28T11:41:43;100033.91;;;11.25;56.25
12913;BME280;6524;51.368;11.984;2023-04-28T11:46:45;100035.28;;;11.42;56.75
12913;BME280;6524;51.368;11.984;2023-04-28T11:51:50;100029.69;;;11.93;56.27
12913;BME280;6524;51.368;11.984;2023-04-28T11:56:53;100024.63;;;12.01;56.36
12913;BME280;6524;51.368;11.984;2023-04-28T12:01:57;100036.84;;;11.69;56.45
12913;BME280;6524;51.368;11.984;2023-04-28T12:12:11;100026.03;;;10.88;56.85
12913;BME280;6524;51.368;11.984;2023-04-28T12:17:25;100022.47;;;10.77;57.40
12913;BME280;6524;51.368;11.984;2023-04-28T12:22:29;100023.66;;;11.21;55.89
12913;BME280;6524;51.368;11.984;2023-04-28T12:27:29;100024.19;;;11.02;56.21
12913;BME280;6524;51.368;11.984;2023-04-28T12:32:38;100012.22;;;10.85;57.37
12913;BME280;6524;51.368;11.984;2023-04-28T12:37:41;100016.03;;;10.81;57.04
12913;BME280;6524;51.368;11.984;2023-04-28T12:42:41;100009.91;;;11.04;56.94
12913;BME280;6524;51.368;11.984;2023-04-28T12:47:43;100010.25;;;11.00;57.00
12913;BME280;6524;51.368;11.984;2023-04-28T12:52:44;99996.72;;;10.67;57.46
12913;BME280;6524;51.368;11.984;2023-04-28T12:57:44;99996.94;;;10.77;56.17
12913;BME280;6524;51.368;11.984;2023-04-28T13:02:44;99989.00;;;11.01;55.87
12913;BME280;6524;51.368;11.984;2023-04-28T13:07:45;99987.69;;;10.59;57.31
12913;BME280;6524;51.368;11.984;2023-04-28T13:12:46;99978.16;;;10.56;57.19
12913;BME280;6524;51.368;11.984;2023-04-28T13:17:47;99977.72;;;10.62;56.71
12913;BME280;6524;51.368;11.984;2023-04-28T13:22:47;99978.63;;;10.87;55.91
12913;BME280;6524;51.368;11.984;2023-04-28T13:27:48;99956.59;;;11.10;55.58
12913;BME280;6524;51.368;11.984;2023-04-28T13:32:49;99947.84;;;11.10;56.10
12913;BME280;6524;51.368;11.984;2023-04-28T13:37:51;99939.09;;;11.21;56.07
12913;BME280;6524;51.368;11.984;2023-04-28T13:42:55;99928.44;;;10.87;56.77
12913;BME280;6524;51.368;11.984;2023-04-28T13:47:57;99933.94;;;10.84;56.52
12913;BME280;6524;51.368;11.984;2023-04-28T13:52:59;99938.84;;;11.12;55.96
12913;BME280;6524;51.368;11.984;2023-04-28T13:58:00;99930.06;;;11.12;56.50
12913;BME280;6524;51.368;11.984;2023-04-28T14:03:04;99926.25;;;11.27;56.39
12913;BME280;6524;51.368;11.984;2023-04-28T14:08:04;99920.47;;;11.69;55.45
12913;BME280;6524;51.368;11.984;2023-04-28T14:13:05;99912.28;;;11.94;54.92
12913;BME280;6524;51.368;11.984;2023-04-28T14:18:07;99906.50;;;11.89;55.61
12913;BME280;6524;51.368;11.984;2023-04-28T14:23:11;99898.75;;;11.52;56.81
12913;BME280;6524;51.368;11.984;2023-04-28T14:28:12;99905.75;;;11.53;56.78
12913;BME280;6524;51.368;11.984;2023-04-28T14:33:12;99900.69;;;11.50;57.04
12913;BME280;6524;51.368;11.984;2023-04-28T14:38:12;99898.22;;;11.13;58.15
12913;BME280;6524;51.368;11.984;2023-04-28T14:43:13;99879.75;;;11.25;58.37
12913;BME280;6524;51.368;11.984;2023-04-28T14:48:13;99887.38;;;11.63;57.33
12913;BME280;6524;51.368;11.984;2023-04-28T14:53:14;99885.41;;;11.42;57.58
12913;BME280;6524;51.368;11.984;2023-04-28T14:58:15;99890.34;;;11.25;57.29
12913;BME280;6524;51.368;11.984;2023-04-28T15:03:15;99871.47;;;11.29;57.69
12913;BME280;6524;51.368;11.984;2023-04-28T15:08:18;99872.50;;;11.04;58.29
12913;BME280;6524;51.368;11.984;2023-04-28T15:13:18;99870.97;;;11.13;58.21
12913;BME280;6524;51.368;11.984;2023-04-28T15:18:19;99866.75;;;11.10;58.07
12913;BME280;6524;51.368;11.984;2023-04-28T15:23:20;99855.66;;;10.94;58.81
12913;BME280;6524;51.368;11.984;2023-04-28T15:28:20;99855.91;;;10.91;59.38
12913;BME280;6524;51.368;11.984;2023-04-28T15:33:21;99842.63;;;11.15;58.93
12913;BME280;6524;51.368;11.984;2023-04-28T15:38:23;99844.13;;;10.84;59.97
12913;BME280;6524;51.368;11.984;2023-04-28T15:43:23;99835.75;;;11.01;59.49
12913;BME280;6524;51.368;11.984;2023-04-28T15:48:24;99819.66;;;11.04;59.21
12913;BME280;6524;51.368;11.984;2023-04-28T15:53:26;99834.56;;;11.61;57.48
12913;BME280;6524;51.368;11.984;2023-04-28T15:58:26;99827.63;;;11.49;57.95
12913;BME280;6524;51.368;11.984;2023-04-28T16:03:26;99828.78;;;11.00;58.78
12913;BME280;6524;51.368;11.984;2023-04-28T16:08:27;99819.19;;;11.33;58.03
12913;BME280;6524;51.368;11.984;2023-04-28T16:13:28;99816.31;;;11.25;57.98
12913;BME280;6524;51.368;11.984;2023-04-28T16:18:32;99817.03;;;11.38;58.07
12913;BME280;6524;51.368;11.984;2023-04-28T16:23:32;99824.00;;;11.39;58.27
12913;BME280;6524;51.368;11.984;2023-04-28T16:28:33;99815.34;;;11.48;58.07
12913;BME280;6524;51.368;11.984;2023-04-28T16:33:33;99815.63;;;11.34;59.13
12913;BME280;6524;51.368;11.984;2023-04-28T16:38:34;99815.84;;;11.53;58.25
12913;BME280;6524;51.368;11.984;2023-04-28T16:43:34;99820.19;;;11.66;58.03
12913;BME280;6524;51.368;11.984;2023-04-28T16:48:37;99822.56;;;11.57;58.72
12913;BME280;6524;51.368;11.984;2023-04-28T16:53:37;99817.88;;;11.61;58.78
12913;BME280;6524;51.368;11.984;2023-04-28T16:58:38;99814.66;;;11.69;58.56
12913;BME280;6524;51.368;11.984;2023-04-28T17:03:38;99807.19;;;11.29;59.34
12913;BME280;6524;51.368;11.984;2023-04-28T17:08:40;99802.25;;;11.58;59.16
12913;BME280;6524;51.368;11.984;2023-04-28T17:13:41;99786.16;;;11.38;60.03
12913;BME280;6524;51.368;11.984;2023-04-28T17:18:41;99794.44;;;11.68;59.08
12913;BME280;6524;51.368;11.984;2023-04-28T17:23:42;99786.59;;;11.77;59.05
12913;BME280;6524;51.368;11.984;2023-04-28T17:28:43;99787.47;;;11.78;59.27
12913;BME280;6524;51.368;11.984;2023-04-28T17:33:43;99787.59;;;11.76;59.35
12913;BME280;6524;51.368;11.984;2023-04-28T17:38:45;99791.53;;;11.93;59.08
12913;BME280;6524;51.368;11.984;2023-04-28T17:43:52;99787.59;;;12.08;58.55
12913;BME280;6524;51.368;11.984;2023-04-28T17:49:02;99792.75;;;11.78;59.96
12913;BME280;6524;51.368;11.984;2023-04-28T17:54:05;99791.31;;;11.74;60.03
12913;BME280;6524;51.368;11.984;2023-04-28T17:59:09;99795.88;;;11.60;60.25
12913;BME280;6524;51.368;11.984;2023-04-28T18:04:09;99784.78;;;11.89;59.91
12913;BME280;6524;51.368;11.984;2023-04-28T18:09:10;99792.03;;;11.64;60.38
12913;BME280;6524;51.368;11.984;2023-04-28T18:14:10;99797.09;;;11.45;61.06
12913;BME280;6524;51.368;11.984;2023-04-28T18:19:11;99795.28;;;11.57;61.51
12913;BME280;6524;51.368;11.984;2023-04-28T18:24:12;99790.81;;;11.57;61.30
12913;BME280;6524;51.368;11.984;2023-04-28T18:29:12;99792.53;;;11.70;61.21
12913;BME280;6524;51.368;11.984;2023-04-28T18:34:16;99796.59;;;11.74;61.79
12913;BME280;6524;51.368;11.984;2023-04-28T18:39:17;99781.22;;;11.45;62.21
12913;BME280;6524;51.368;11.984;2023-04-28T18:44:20;99778.13;;;11.40;63.22
12913;BME280;6524;51.368;11.984;2023-04-28T18:49:21;99783.75;;;11.69;62.62
12913;BME280;6524;51.368;11.984;2023-04-28T18:54:23;99774.25;;;11.67;62.54
12913;BME280;6524;51.368;11.984;2023-04-28T18:59:25;99781.22;;;11.45;63.78
12913;BME280;6524;51.368;11.984;2023-04-28T19:04:26;99788.94;;;11.37;63.64
12913;BME280;6524;51.368;11.984;2023-04-28T19:09:26;99797.94;;;11.68;62.94
12913;BME280;6524;51.368;11.984;2023-04-28T19:14:27;99792.53;;;11.70;63.15
12913;BME280;6524;51.368;11.984;2023-04-28T19:19:28;99786.50;;;11.68;63.33
12913;BME280;6524;51.368;11.984;2023-04-28T19:24:28;99779.69;;;11.65;62.95
12913;BME280;6524;51.368;11.984;2023-04-28T19:29:29;99770.66;;;11.56;63.90
12913;BME280;6524;51.368;11.984;2023-04-28T19:34:29;99775.44;;;11.51;63.68
12913;BME280;6524;51.368;11.984;2023-04-28T19:39:33;99765.72;;;11.40;64.15
12913;BME280;6524;51.368;11.984;2023-04-28T19:44:36;99750.34;;;11.68;63.68
12913;BME280;6524;51.368;11.984;2023-04-28T19:49:38;99745.03;;;11.57;63.97
12913;BME280;6524;51.368;11.984;2023-04-28T19:54:40;99762.59;;;11.47;64.14
12913;BME280;6524;51.368;11.984;2023-04-28T19:59:43;99781.22;;;11.45;64.38
12913;BME280;6524;51.368;11.984;2023-04-28T20:04:44;99787.09;;;11.49;63.98
12913;BME280;6524;51.368;11.984;2023-04-28T20:09:44;99787.72;;;11.30;64.62
12913;BME280;6524;51.368;11.984;2023-04-28T20:14:45;99789.16;;;11.34;64.56
12913;BME280;6524;51.368;11.984;2023-04-28T20:19:46;99791.31;;;11.29;65.04
12913;BME280;6524;51.368;11.984;2023-04-28T20:24:46;99800.34;;;11.26;65.50
12913;BME280;6524;51.368;11.984;2023-04-28T20:29:47;99801.75;;;11.30;65.36
12913;BME280;6524;51.368;11.984;2023-04-28T20:34:47;99788.44;;;11.21;65.88
12913;BME280;6524;51.368;11.984;2023-04-28T20:39:48;99777.13;;;10.85;67.59
12913;BME280;6524;51.368;11.984;2023-04-28T20:44:49;99773.50;;;10.86;68.26
12913;BME280;6524;51.368;11.984;2023-04-28T20:49:50;99772.13;;;10.69;68.67
12913;BME280;6524;51.368;11.984;2023-04-28T20:54:50;99781.47;;;10.97;67.55
12913;BME280;6524;51.368;11.984;2023-04-28T20:59:53;99780.50;;;10.87;68.26
12913;BME280;6524;51.368;11.984;2023-04-28T21:04:53;99773.13;;;10.79;67.67
12913;BME280;6524;51.368;11.984;2023-04-28T21:09:54;99760.38;;;10.62;68.59
12913;BME280;6524;51.368;11.984;2023-04-28T21:14:54;99758.03;;;10.92;67.43
12913;BME280;6524;51.368;11.984;2023-04-28T21:19:54;99745.66;;;10.82;67.18
12913;BME280;6524;51.368;11.984;2023-04-28T21:24:56;99760.91;;;10.78;67.99
12913;BME280;6524;51.368;11.984;2023-04-28T21:29:57;99755.97;;;10.85;66.17
12913;BME280;6524;51.368;11.984;2023-04-28T21:34:57;99761.53;;;10.46;68.27
12913;BME280;6524;51.368;11.984;2023-04-28T21:39:57;99759.66;;;10.71;66.60
12913;BME280;6524;51.368;11.984;2023-04-28T21:44:58;99749.84;;;10.38;67.88
12913;BME280;6524;51.368;11.984;2023-04-28T21:49:58;99747.66;;;10.32;67.58
12913;BME280;6524;51.368;11.984;2023-04-28T21:54:58;99744.63;;;10.49;67.32
12913;BME280;6524;51.368;11.984;2023-04-28T21:59:59;99750.16;;;10.68;66.83
12913;BME280;6524;51.368;11.984;2023-04-28T22:04:59;99751.09;;;10.56;66.75
12913;BME280;6524;51.368;11.984;2023-04-28T22:10:00;99746.22;;;9.79;69.80
12913;BME280;6524;51.368;11.984;2023-04-28T22:15:01;99750.66;;;9.79;69.52
12913;BME280;6524;51.368;11.984;2023-04-28T22:20:02;99752.34;;;9.67;69.57
12913;BME280;6524;51.368;11.984;2023-04-28T22:25:03;99752.44;;;9.42;71.50
12913;BME280;6524;51.368;11.984;2023-04-28T22:30:06;99742.94;;;9.52;71.89
12913;BME280;6524;51.368;11.984;2023-04-28T22:35:07;99745.84;;;9.60;71.59
12913;BME280;6524;51.368;11.984;2023-04-28T22:40:08;99748.03;;;9.29;73.41
12913;BME280;6524;51.368;11.984;2023-04-28T22:45:09;99735.38;;;9.34;73.38
12913;BME280;6524;51.368;11.984;2023-04-28T22:50:10;99735.88;;;9.76;71.31
12913;BME280;6524;51.368;11.984;2023-04-28T22:55:11;99744.41;;;9.56;72.24
12913;BME280;6524;51.368;11.984;2023-04-28T23:00:12;99725.06;;;9.68;71.84
12913;BME280;6524;51.368;11.984;2023-04-28T23:05:15;99724.47;;;9.15;73.54
12913;BME280;6524;51.368;11.984;2023-04-28T23:10:15;99733.59;;;9.72;71.34
12913;BME280;6524;51.368;11.984;2023-04-28T23:15:17;99727.84;;;9.91;71.40
12913;BME280;6524;51.368;11.984;2023-04-28T23:20:17;99747.50;;;9.87;71.20
12913;BME280;6524;51.368;11.984;2023-04-28T23:25:18;99744.72;;;9.15;74.74
12913;BME280;6524;51.368;11.984;2023-04-28T23:30:18;99747.53;;;9.61;74.12
12913;BME280;6524;51.368;11.984;2023-04-28T23:35:19;99748.59;;;9.22;76.64
12913;BME280;6524;51.368;11.984;2023-04-28T23:40:19;99750.59;;;9.18;78.41
12913;BME280;6524;51.368;11.984;2023-04-28T23:45:20;99734.78;;;9.18;79.08
12913;BME280;6524;51.368;11.984;2023-04-28T23:50:20;99731.13;;;9.45;78.47
